Terminal Aerodrome Forecast
Issued by NWS

Home | Current Version | Previous Version | Text Only | Print | Product List | Glossary On
Versions: 1 2 3 4 5 6 7 8 9 10 11 12 13 14 15
000
FTUS42 KTAE 020100 AAA
TAFECP
TAF AMD
KECP 020108Z 0201/0224 15012KT 5SM RA BR OVC003
     FM020400 21012KT 6SM -SHRA OVC008
     FM021000 26012KT P6SM VCSH OVC010
     FM021200 30012G18KT P6SM OVC025
     FM021800 34012G18KT P6SM SCT060=

USA.gov is the U.S. government's official web portal to all federal, state and local government web resources and services.